Maersk Weymouth — VRFS9 — position and weather

sailwx.info

Track history (hours):
 
Tides and Currents Weather Stations Pressure Air Temp Water Temp Dewpoint Dewpoint Depression Visibility Wind Speed Wind Dir Waves Ship Positions

Maersk Weymouth

Last reported at 2015-Mar-24 11:13 UTC. Time now 2015-Mar-29 07:22 UTC.
Position N 34°29' W 023°35'.

Length 172 m; draft 7.7 m.

Type: Cargo ship. MMSI: 477622100.

Date/timePositionNaut miles runAvg speedWind from/ knotsBaromVisibWave heightAir tempDewpointWater temp
2015-Mar-24 11:13N 34°29' W 023°35'88717.4
2015-Mar-22 08:16N 35°57' W 005°35'811.2
2015-Mar-22 07:33N 36°01' W 005°26'8 8.4
2015-Mar-22 06:33N 36°09' W 005°25'1 0.7
2015-Mar-22 05:33N 36°08' W 005°26'0 0.0
2015-Mar-22 04:33N 36°08' W 005°26'0 0.0
2015-Mar-22 03:33N 36°08' W 005°26'0 0.0
2015-Mar-22 02:33N 36°08' W 005°26'0 0.0
2015-Mar-22 01:33N 36°09' W 005°26'0 0.0
2015-Mar-22 00:33N 36°08' W 005°26'0 0.0
2015-Mar-21 23:33N 36°08' W 005°26'0 0.0
2015-Mar-21 22:33N 36°09' W 005°26'0 0.0
2015-Mar-21 21:33N 36°08' W 005°26'0 0.0
2015-Mar-21 20:30N 36°09' W 005°26'0 0.0
2015-Mar-21 19:24N 36°08' W 005°26'0 0.0
2015-Mar-21 18:33N 36°08' W 005°26'0 0.0
2015-Mar-21 17:24N 36°08' W 005°26'0 0.0
2015-Mar-21 16:30N 36°09' W 005°26'0 0.0
2015-Mar-21 15:30N 36°08' W 005°26'0 0.0
2015-Mar-21 14:33N 36°08' W 005°26'0 0.0
2015-Mar-21 13:33N 36°08' W 005°26'0 0.0
2015-Mar-21 12:30N 36°08' W 005°26'0 0.0
2015-Mar-21 11:33N 36°08' W 005°26'0 0.0
2015-Mar-21 10:06N 36°08' W 005°26'0 0.0
2015-Mar-21 09:09N 36°08' W 005°26'0 0.0
2015-Mar-21 08:33N 36°08' W 005°26'0 0.0
2015-Mar-21 07:33N 36°08' W 005°26'0 0.0
2015-Mar-21 06:33N 36°08' W 005°26'0 0.0
2015-Mar-21 05:15N 36°09' W 005°26'0 0.0
2015-Mar-21 04:33N 36°08' W 005°26'0 0.0
2015-Mar-21 03:33N 36°08' W 005°26'0 0.0
2015-Mar-21 02:33N 36°08' W 005°26'0 0.0
2015-Mar-21 01:33N 36°08' W 005°26'4 4.0
2015-Mar-21 00:33N 36°06' W 005°23'5 4.7
2015-Mar-20 23:34N 36°04' W 005°17'4 4.2
2015-Mar-20 22:33N 36°03' W 005°22'  
Track history (hours):
 
Tides and Currents Weather Stations Pressure Air Temp Water Temp Dewpoint Dewpoint Depression Visibility Wind Speed Wind Dir Waves Ship Positions

Maersk Weymouth

Last reported at 2015-Mar-24 11:13 UTC. Time now 2015-Mar-29 07:22 UTC.
Position N 34°29' W 023°35'.

Length 172 m; draft 7.7 m.

Type: Cargo ship. MMSI: 477622100.

Date/timePositionNaut miles runAvg speedWind from/ knotsBaromVisibWave heightAir tempDewpointWater temp
2015-Mar-24 11:13N 34°29' W 023°35'88717.4
2015-Mar-22 08:16N 35°57' W 005°35'811.2
2015-Mar-22 07:33N 36°01' W 005°26'8 8.4
2015-Mar-22 06:33N 36°09' W 005°25'1 0.7
2015-Mar-22 05:33N 36°08' W 005°26'0 0.0
2015-Mar-22 04:33N 36°08' W 005°26'0 0.0
2015-Mar-22 03:33N 36°08' W 005°26'0 0.0
2015-Mar-22 02:33N 36°08' W 005°26'0 0.0
2015-Mar-22 01:33N 36°09' W 005°26'0 0.0
2015-Mar-22 00:33N 36°08' W 005°26'0 0.0
2015-Mar-21 23:33N 36°08' W 005°26'0 0.0
2015-Mar-21 22:33N 36°09' W 005°26'0 0.0
2015-Mar-21 21:33N 36°08' W 005°26'0 0.0
2015-Mar-21 20:30N 36°09' W 005°26'0 0.0
2015-Mar-21 19:24N 36°08' W 005°26'0 0.0
2015-Mar-21 18:33N 36°08' W 005°26'0 0.0
2015-Mar-21 17:24N 36°08' W 005°26'0 0.0
2015-Mar-21 16:30N 36°09' W 005°26'0 0.0
2015-Mar-21 15:30N 36°08' W 005°26'0 0.0
2015-Mar-21 14:33N 36°08' W 005°26'0 0.0
2015-Mar-21 13:33N 36°08' W 005°26'0 0.0
2015-Mar-21 12:30N 36°08' W 005°26'0 0.0
2015-Mar-21 11:33N 36°08' W 005°26'0 0.0
2015-Mar-21 10:06N 36°08' W 005°26'0 0.0
2015-Mar-21 09:09N 36°08' W 005°26'0 0.0
2015-Mar-21 08:33N 36°08' W 005°26'0 0.0
2015-Mar-21 07:33N 36°08' W 005°26'0 0.0
2015-Mar-21 06:33N 36°08' W 005°26'0 0.0
2015-Mar-21 05:15N 36°09' W 005°26'0 0.0
2015-Mar-21 04:33N 36°08' W 005°26'0 0.0
2015-Mar-21 03:33N 36°08' W 005°26'0 0.0
2015-Mar-21 02:33N 36°08' W 005°26'0 0.0
2015-Mar-21 01:33N 36°08' W 005°26'4 4.0
2015-Mar-21 00:33N 36°06' W 005°23'5 4.7
2015-Mar-20 23:34N 36°04' W 005°17'4 4.2
2015-Mar-20 22:33N 36°03' W 005°22'  

Dump ship's entire track history